sensor_id;sensor_type;location;lat;lon;timestamp;P1;durP1;ratioP1;P2;durP2;ratioP2
70199;SDS011;57587;55.688;37.600;2022-07-05T00:01:43;22.10;;;11.73;;
70199;SDS011;57587;55.688;37.600;2022-07-05T00:04:10;21.02;;;11.45;;
70199;SDS011;57587;55.688;37.600;2022-07-05T00:06:37;16.17;;;10.60;;
70199;SDS011;57587;55.688;37.600;2022-07-05T00:09:24;19.95;;;11.10;;
70199;SDS011;57587;55.688;37.600;2022-07-05T00:11:54;22.85;;;11.50;;
70199;SDS011;57587;55.688;37.600;2022-07-05T00:14:21;34.77;;;15.10;;
70199;SDS011;57587;55.688;37.600;2022-07-05T00:16:48;29.45;;;15.80;;
70199;SDS011;57587;55.688;37.600;2022-07-05T00:19:16;27.10;;;14.45;;
70199;SDS011;57587;55.688;37.600;2022-07-05T00:21:43;26.42;;;13.48;;
70199;SDS011;57587;55.688;37.600;2022-07-05T00:24:18;22.75;;;11.98;;
70199;SDS011;57587;55.688;37.600;2022-07-05T00:26:45;23.53;;;11.83;;
70199;SDS011;57587;55.688;37.600;2022-07-05T00:29:13;17.95;;;10.52;;
70199;SDS011;57587;55.688;37.600;2022-07-05T00:31:42;19.73;;;10.57;;
70199;SDS011;57587;55.688;37.600;2022-07-05T00:38:11;18.45;;;10.95;;
70199;SDS011;57587;55.688;37.600;2022-07-05T00:40:39;24.13;;;10.93;;
70199;SDS011;57587;55.688;37.600;2022-07-05T00:43:06;24.38;;;11.00;;
70199;SDS011;57587;55.688;37.600;2022-07-05T00:45:33;20.33;;;11.05;;
70199;SDS011;57587;55.688;37.600;2022-07-05T00:48:04;20.67;;;10.80;;
70199;SDS011;57587;55.688;37.600;2022-07-05T00:50:31;24.38;;;10.52;;
70199;SDS011;57587;55.688;37.600;2022-07-05T00:53:01;20.37;;;11.23;;
70199;SDS011;57587;55.688;37.600;2022-07-05T00:55:29;21.88;;;11.20;;
70199;SDS011;57587;55.688;37.600;2022-07-05T00:57:56;18.15;;;11.35;;
70199;SDS011;57587;55.688;37.600;2022-07-05T01:00:23;17.13;;;10.60;;
70199;SDS011;57587;55.688;37.600;2022-07-05T01:02:50;16.05;;;10.68;;
70199;SDS011;57587;55.688;37.600;2022-07-05T01:05:18;15.43;;;10.40;;
70199;SDS011;57587;55.688;37.600;2022-07-05T01:07:45;28.23;;;10.82;;
70199;SDS011;57587;55.688;37.600;2022-07-05T01:10:13;15.43;;;10.48;;
70199;SDS011;57587;55.688;37.600;2022-07-05T01:12:40;18.00;;;10.82;;
70199;SDS011;57587;55.688;37.600;2022-07-05T01:15:07;17.35;;;10.30;;
70199;SDS011;57587;55.688;37.600;2022-07-05T01:17:36;23.70;;;10.83;;
70199;SDS011;57587;55.688;37.600;2022-07-05T01:20:04;18.38;;;10.35;;
70199;SDS011;57587;55.688;37.600;2022-07-05T01:25:22;17.50;;;10.65;;
70199;SDS011;57587;55.688;37.600;2022-07-05T01:27:50;20.50;;;10.95;;
70199;SDS011;57587;55.688;37.600;2022-07-05T01:30:18;18.77;;;10.53;;
70199;SDS011;57587;55.688;37.600;2022-07-05T01:32:46;24.25;;;11.60;;
70199;SDS011;57587;55.688;37.600;2022-07-05T01:35:15;19.63;;;10.90;;
70199;SDS011;57587;55.688;37.600;2022-07-05T01:37:50;26.33;;;11.73;;
70199;SDS011;57587;55.688;37.600;2022-07-05T01:40:21;20.50;;;10.88;;
70199;SDS011;57587;55.688;37.600;2022-07-05T01:42:48;17.97;;;10.60;;
70199;SDS011;57587;55.688;37.600;2022-07-05T01:45:15;17.70;;;10.35;;
70199;SDS011;57587;55.688;37.600;2022-07-05T01:48:04;20.17;;;11.25;;
70199;SDS011;57587;55.688;37.600;2022-07-05T01:50:37;23.35;;;11.82;;
70199;SDS011;57587;55.688;37.600;2022-07-05T01:53:08;19.83;;;11.88;;
70199;SDS011;57587;55.688;37.600;2022-07-05T01:55:41;21.97;;;12.20;;
70199;SDS011;57587;55.688;37.600;2022-07-05T01:58:08;21.13;;;12.55;;
70199;SDS011;57587;55.688;37.600;2022-07-05T02:00:45;22.73;;;12.38;;
70199;SDS011;57587;55.688;37.600;2022-07-05T02:03:14;20.02;;;11.13;;
70199;SDS011;57587;55.688;37.600;2022-07-05T02:06:00;23.58;;;11.85;;
70199;SDS011;57587;55.688;37.600;2022-07-05T02:08:28;23.23;;;12.13;;
70199;SDS011;57587;55.688;37.600;2022-07-05T02:10:57;20.15;;;12.80;;
70199;SDS011;57587;55.688;37.600;2022-07-05T02:13:24;21.35;;;13.15;;
70199;SDS011;57587;55.688;37.600;2022-07-05T02:15:52;21.65;;;11.25;;
70199;SDS011;57587;55.688;37.600;2022-07-05T02:18:19;24.08;;;12.20;;
70199;SDS011;57587;55.688;37.600;2022-07-05T02:20:46;17.53;;;11.23;;
70199;SDS011;57587;55.688;37.600;2022-07-05T02:23:14;21.75;;;12.55;;
70199;SDS011;57587;55.688;37.600;2022-07-05T02:25:41;26.15;;;13.10;;
70199;SDS011;57587;55.688;37.600;2022-07-05T02:28:13;25.65;;;12.95;;
70199;SDS011;57587;55.688;37.600;2022-07-05T02:30:44;28.52;;;13.35;;
70199;SDS011;57587;55.688;37.600;2022-07-05T02:33:11;26.10;;;13.10;;
70199;SDS011;57587;55.688;37.600;2022-07-05T02:35:39;23.05;;;13.38;;
70199;SDS011;57587;55.688;37.600;2022-07-05T02:38:06;23.13;;;12.90;;
70199;SDS011;57587;55.688;37.600;2022-07-05T02:40:33;28.85;;;14.68;;
70199;SDS011;57587;55.688;37.600;2022-07-05T02:43:02;25.15;;;13.38;;
70199;SDS011;57587;55.688;37.600;2022-07-05T02:45:30;28.67;;;14.33;;
70199;SDS011;57587;55.688;37.600;2022-07-05T02:47:59;23.92;;;14.75;;
70199;SDS011;57587;55.688;37.600;2022-07-05T02:50:28;24.80;;;15.77;;
70199;SDS011;57587;55.688;37.600;2022-07-05T02:52:56;29.05;;;14.60;;
70199;SDS011;57587;55.688;37.600;2022-07-05T02:55:23;23.65;;;14.20;;
70199;SDS011;57587;55.688;37.600;2022-07-05T02:57:51;25.63;;;14.00;;
70199;SDS011;57587;55.688;37.600;2022-07-05T03:00:19;25.10;;;13.60;;
70199;SDS011;57587;55.688;37.600;2022-07-05T03:02:47;23.58;;;14.48;;
70199;SDS011;57587;55.688;37.600;2022-07-05T03:05:15;26.65;;;14.27;;
70199;SDS011;57587;55.688;37.600;2022-07-05T03:07:51;31.98;;;15.30;;
70199;SDS011;57587;55.688;37.600;2022-07-05T03:10:19;23.90;;;14.83;;
70199;SDS011;57587;55.688;37.600;2022-07-05T03:12:47;24.05;;;14.98;;
70199;SDS011;57587;55.688;37.600;2022-07-05T03:15:14;22.40;;;14.75;;
70199;SDS011;57587;55.688;37.600;2022-07-05T03:17:42;23.63;;;14.02;;
70199;SDS011;57587;55.688;37.600;2022-07-05T03:20:12;21.52;;;13.90;;
70199;SDS011;57587;55.688;37.600;2022-07-05T03:22:39;25.70;;;13.93;;
70199;SDS011;57587;55.688;37.600;2022-07-05T03:25:06;22.55;;;13.90;;
70199;SDS011;57587;55.688;37.600;2022-07-05T03:27:34;26.48;;;14.10;;
70199;SDS011;57587;55.688;37.600;2022-07-05T03:30:05;20.17;;;12.95;;
70199;SDS011;57587;55.688;37.600;2022-07-05T03:32:35;25.77;;;14.40;;
70199;SDS011;57587;55.688;37.600;2022-07-05T03:35:05;20.97;;;11.93;;
70199;SDS011;57587;55.688;37.600;2022-07-05T03:37:33;18.90;;;11.13;;
70199;SDS011;57587;55.688;37.600;2022-07-05T03:40:00;20.58;;;11.18;;
70199;SDS011;57587;55.688;37.600;2022-07-05T03:42:28;17.33;;;10.15;;
70199;SDS011;57587;55.688;37.600;2022-07-05T03:44:55;16.60;;;11.55;;
70199;SDS011;57587;55.688;37.600;2022-07-05T03:47:23;16.47;;;10.83;;
70199;SDS011;57587;55.688;37.600;2022-07-05T03:49:50;15.93;;;10.75;;
70199;SDS011;57587;55.688;37.600;2022-07-05T03:52:17;14.85;;;10.35;;
70199;SDS011;57587;55.688;37.600;2022-07-05T03:59:16;17.02;;;10.30;;
70199;SDS011;57587;55.688;37.600;2022-07-05T04:01:44;20.57;;;10.00;;
70199;SDS011;57587;55.688;37.600;2022-07-05T04:07:06;17.45;;;10.73;;
70199;SDS011;57587;55.688;37.600;2022-07-05T04:09:34;18.85;;;10.07;;
70199;SDS011;57587;55.688;37.600;2022-07-05T04:12:03;15.77;;;10.02;;
70199;SDS011;57587;55.688;37.600;2022-07-05T04:14:32;13.03;;;8.97;;
70199;SDS011;57587;55.688;37.600;2022-07-05T04:16:59;11.40;;;8.68;;
70199;SDS011;57587;55.688;37.600;2022-07-05T04:19:26;15.60;;;8.60;;
70199;SDS011;57587;55.688;37.600;2022-07-05T04:21:54;11.43;;;8.43;;
70199;SDS011;57587;55.688;37.600;2022-07-05T04:24:21;12.90;;;8.07;;
70199;SDS011;57587;55.688;37.600;2022-07-05T04:26:49;11.03;;;8.07;;
70199;SDS011;57587;55.688;37.600;2022-07-05T04:29:16;12.57;;;8.10;;
70199;SDS011;57587;55.688;37.600;2022-07-05T04:31:44;13.30;;;8.18;;
70199;SDS011;57587;55.688;37.600;2022-07-05T04:34:12;11.10;;;7.55;;
70199;SDS011;57587;55.688;37.600;2022-07-05T04:36:41;10.35;;;7.43;;
70199;SDS011;57587;55.688;37.600;2022-07-05T04:39:09;9.00;;;7.73;;
70199;SDS011;57587;55.688;37.600;2022-07-05T04:41:40;11.07;;;8.15;;
70199;SDS011;57587;55.688;37.600;2022-07-05T04:48:42;11.43;;;8.10;;
70199;SDS011;57587;55.688;37.600;2022-07-05T04:51:11;10.80;;;7.90;;
70199;SDS011;57587;55.688;37.600;2022-07-05T04:53:39;11.33;;;8.00;;
70199;SDS011;57587;55.688;37.600;2022-07-05T04:56:06;13.15;;;7.53;;
70199;SDS011;57587;55.688;37.600;2022-07-05T04:58:34;12.43;;;8.20;;
70199;SDS011;57587;55.688;37.600;2022-07-05T05:01:01;11.13;;;7.47;;
70199;SDS011;57587;55.688;37.600;2022-07-05T05:03:28;14.63;;;12.07;;
70199;SDS011;57587;55.688;37.600;2022-07-05T05:05:56;15.17;;;13.57;;
70199;SDS011;57587;55.688;37.600;2022-07-05T05:08:22;14.85;;;8.60;;
70199;SDS011;57587;55.688;37.600;2022-07-05T05:10:50;13.23;;;7.68;;
70199;SDS011;57587;55.688;37.600;2022-07-05T05:13:17;12.13;;;7.28;;
70199;SDS011;57587;55.688;37.600;2022-07-05T05:15:44;11.25;;;8.13;;
70199;SDS011;57587;55.688;37.600;2022-07-05T05:18:11;14.93;;;8.20;;
70199;SDS011;57587;55.688;37.600;2022-07-05T05:20:38;12.43;;;8.10;;
70199;SDS011;57587;55.688;37.600;2022-07-05T05:23:06;9.98;;;8.02;;
70199;SDS011;57587;55.688;37.600;2022-07-05T05:25:33;12.23;;;7.65;;
70199;SDS011;57587;55.688;37.600;2022-07-05T05:28:02;13.38;;;8.43;;
70199;SDS011;57587;55.688;37.600;2022-07-05T05:30:29;10.40;;;7.57;;
70199;SDS011;57587;55.688;37.600;2022-07-05T05:32:57;15.20;;;8.23;;
70199;SDS011;57587;55.688;37.600;2022-07-05T05:39:54;11.02;;;8.20;;
70199;SDS011;57587;55.688;37.600;2022-07-05T05:42:21;9.60;;;8.20;;
70199;SDS011;57587;55.688;37.600;2022-07-05T05:44:48;14.33;;;8.57;;
70199;SDS011;57587;55.688;37.600;2022-07-05T05:47:15;10.95;;;8.52;;
70199;SDS011;57587;55.688;37.600;2022-07-05T05:49:42;12.38;;;8.32;;
70199;SDS011;57587;55.688;37.600;2022-07-05T05:52:10;10.63;;;7.90;;
70199;SDS011;57587;55.688;37.600;2022-07-05T05:54:37;11.13;;;8.48;;
70199;SDS011;57587;55.688;37.600;2022-07-05T05:57:04;13.00;;;8.33;;
70199;SDS011;57587;55.688;37.600;2022-07-05T05:59:31;11.98;;;8.27;;
70199;SDS011;57587;55.688;37.600;2022-07-05T06:01:58;16.38;;;7.82;;
70199;SDS011;57587;55.688;37.600;2022-07-05T06:04:26;12.13;;;7.75;;
70199;SDS011;57587;55.688;37.600;2022-07-05T06:06:53;9.57;;;7.57;;
70199;SDS011;57587;55.688;37.600;2022-07-05T06:09:20;13.83;;;7.60;;
70199;SDS011;57587;55.688;37.600;2022-07-05T06:11:47;11.57;;;8.02;;
70199;SDS011;57587;55.688;37.600;2022-07-05T06:14:14;9.10;;;7.28;;
70199;SDS011;57587;55.688;37.600;2022-07-05T06:16:41;10.15;;;7.57;;
70199;SDS011;57587;55.688;37.600;2022-07-05T06:19:08;12.40;;;7.50;;
70199;SDS011;57587;55.688;37.600;2022-07-05T06:21:35;8.23;;;6.63;;
70199;SDS011;57587;55.688;37.600;2022-07-05T06:24:02;11.23;;;7.28;;
70199;SDS011;57587;55.688;37.600;2022-07-05T06:26:29;10.43;;;6.88;;
70199;SDS011;57587;55.688;37.600;2022-07-05T06:28:56;10.75;;;7.38;;
70199;SDS011;57587;55.688;37.600;2022-07-05T06:31:23;9.55;;;7.05;;
70199;SDS011;57587;55.688;37.600;2022-07-05T06:38:18;10.75;;;7.40;;
70199;SDS011;57587;55.688;37.600;2022-07-05T06:40:45;9.48;;;7.45;;
70199;SDS011;57587;55.688;37.600;2022-07-05T06:43:13;10.35;;;7.63;;
70199;SDS011;57587;55.688;37.600;2022-07-05T06:45:54;12.27;;;7.70;;
70199;SDS011;57587;55.688;37.600;2022-07-05T06:48:22;10.90;;;7.67;;
70199;SDS011;57587;55.688;37.600;2022-07-05T06:50:49;9.43;;;7.80;;
70199;SDS011;57587;55.688;37.600;2022-07-05T06:53:17;13.98;;;8.63;;
70199;SDS011;57587;55.688;37.600;2022-07-05T07:00:17;9.40;;;8.07;;
70199;SDS011;57587;55.688;37.600;2022-07-05T07:02:53;13.83;;;8.27;;
70199;SDS011;57587;55.688;37.600;2022-07-05T07:05:23;10.57;;;7.82;;
70199;SDS011;57587;55.688;37.600;2022-07-05T07:07:56;9.25;;;8.05;;
70199;SDS011;57587;55.688;37.600;2022-07-05T07:10:41;13.23;;;8.38;;
70199;SDS011;57587;55.688;37.600;2022-07-05T07:13:12;11.68;;;7.95;;
70199;SDS011;57587;55.688;37.600;2022-07-05T07:15:42;9.20;;;8.27;;
70199;SDS011;57587;55.688;37.600;2022-07-05T07:18:12;10.95;;;8.25;;
70199;SDS011;57587;55.688;37.600;2022-07-05T07:20:39;11.30;;;7.57;;
70199;SDS011;57587;55.688;37.600;2022-07-05T07:23:06;11.60;;;7.57;;
70199;SDS011;57587;55.688;37.600;2022-07-05T07:25:33;10.55;;;7.60;;
70199;SDS011;57587;55.688;37.600;2022-07-05T07:28:00;8.93;;;7.40;;
70199;SDS011;57587;55.688;37.600;2022-07-05T07:30:30;8.88;;;7.05;;
70199;SDS011;57587;55.688;37.600;2022-07-05T07:32:57;11.02;;;8.13;;
70199;SDS011;57587;55.688;37.600;2022-07-05T07:38:42;11.13;;;7.90;;
70199;SDS011;57587;55.688;37.600;2022-07-05T07:41:11;8.53;;;7.60;;
70199;SDS011;57587;55.688;37.600;2022-07-05T07:43:38;10.85;;;7.95;;
70199;SDS011;57587;55.688;37.600;2022-07-05T07:46:05;9.80;;;7.82;;
70199;SDS011;57587;55.688;37.600;2022-07-05T07:48:32;11.38;;;7.95;;
70199;SDS011;57587;55.688;37.600;2022-07-05T07:50:59;9.98;;;7.53;;
70199;SDS011;57587;55.688;37.600;2022-07-05T07:53:28;14.33;;;7.87;;
70199;SDS011;57587;55.688;37.600;2022-07-05T07:55:55;10.38;;;8.45;;
70199;SDS011;57587;55.688;37.600;2022-07-05T07:58:22;9.18;;;7.35;;
70199;SDS011;57587;55.688;37.600;2022-07-05T08:00:49;10.32;;;7.60;;
70199;SDS011;57587;55.688;37.600;2022-07-05T08:03:16;10.95;;;8.48;;
70199;SDS011;57587;55.688;37.600;2022-07-05T08:05:44;9.90;;;7.73;;
70199;SDS011;57587;55.688;37.600;2022-07-05T08:08:11;10.40;;;8.00;;
70199;SDS011;57587;55.688;37.600;2022-07-05T08:10:38;8.23;;;7.38;;
70199;SDS011;57587;55.688;37.600;2022-07-05T08:13:05;8.50;;;7.47;;
70199;SDS011;57587;55.688;37.600;2022-07-05T08:15:32;9.82;;;7.82;;
70199;SDS011;57587;55.688;37.600;2022-07-05T08:17:59;15.47;;;8.10;;
70199;SDS011;57587;55.688;37.600;2022-07-05T08:20:45;11.48;;;8.57;;
70199;SDS011;57587;55.688;37.600;2022-07-05T08:23:32;14.20;;;8.23;;
70199;SDS011;57587;55.688;37.600;2022-07-05T08:25:59;13.00;;;8.50;;
70199;SDS011;57587;55.688;37.600;2022-07-05T08:28:26;12.35;;;7.95;;
70199;SDS011;57587;55.688;37.600;2022-07-05T08:30:53;9.13;;;8.07;;
70199;SDS011;57587;55.688;37.600;2022-07-05T08:33:21;9.38;;;8.15;;
70199;SDS011;57587;55.688;37.600;2022-07-05T08:35:48;10.80;;;8.38;;
70199;SDS011;57587;55.688;37.600;2022-07-05T08:38:15;9.50;;;8.13;;
70199;SDS011;57587;55.688;37.600;2022-07-05T08:40:44;12.15;;;8.80;;
70199;SDS011;57587;55.688;37.600;2022-07-05T08:43:14;10.17;;;8.13;;
70199;SDS011;57587;55.688;37.600;2022-07-05T08:45:42;12.13;;;8.85;;
70199;SDS011;57587;55.688;37.600;2022-07-05T08:48:10;9.75;;;8.82;;
70199;SDS011;57587;55.688;37.600;2022-07-05T08:50:39;10.63;;;9.50;;
70199;SDS011;57587;55.688;37.600;2022-07-05T08:53:14;12.95;;;9.70;;
70199;SDS011;57587;55.688;37.600;2022-07-05T08:55:42;11.80;;;9.03;;
70199;SDS011;57587;55.688;37.600;2022-07-05T08:58:09;12.13;;;8.52;;
70199;SDS011;57587;55.688;37.600;2022-07-05T09:00:40;12.45;;;8.75;;
70199;SDS011;57587;55.688;37.600;2022-07-05T09:03:09;13.18;;;9.23;;
70199;SDS011;57587;55.688;37.600;2022-07-05T09:05:39;11.70;;;9.70;;
70199;SDS011;57587;55.688;37.600;2022-07-05T09:08:10;11.37;;;8.70;;
70199;SDS011;57587;55.688;37.600;2022-07-05T09:10:42;11.80;;;9.52;;
70199;SDS011;57587;55.688;37.600;2022-07-05T09:13:15;10.82;;;8.68;;
70199;SDS011;57587;55.688;37.600;2022-07-05T09:15:42;11.98;;;10.10;;
70199;SDS011;57587;55.688;37.600;2022-07-05T09:18:09;14.75;;;10.52;;
70199;SDS011;57587;55.688;37.600;2022-07-05T09:20:37;20.07;;;9.80;;
70199;SDS011;57587;55.688;37.600;2022-07-05T09:23:04;14.40;;;10.27;;
70199;SDS011;57587;55.688;37.600;2022-07-05T09:25:32;12.15;;;10.38;;
70199;SDS011;57587;55.688;37.600;2022-07-05T09:28:01;13.18;;;11.20;;
70199;SDS011;57587;55.688;37.600;2022-07-05T09:30:33;13.15;;;10.52;;
70199;SDS011;57587;55.688;37.600;2022-07-05T09:35:33;12.48;;;10.70;;
70199;SDS011;57587;55.688;37.600;2022-07-05T09:38:03;14.48;;;10.13;;
70199;SDS011;57587;55.688;37.600;2022-07-05T09:40:31;15.20;;;10.13;;
70199;SDS011;57587;55.688;37.600;2022-07-05T09:43:12;12.18;;;10.38;;
70199;SDS011;57587;55.688;37.600;2022-07-05T09:48:25;14.10;;;9.85;;
70199;SDS011;57587;55.688;37.600;2022-07-05T09:51:08;12.30;;;9.88;;
70199;SDS011;57587;55.688;37.600;2022-07-05T09:53:57;14.40;;;10.52;;
70199;SDS011;57587;55.688;37.600;2022-07-05T09:56:28;15.55;;;10.45;;
70199;SDS011;57587;55.688;37.600;2022-07-05T10:01:54;15.55;;;10.88;;
70199;SDS011;57587;55.688;37.600;2022-07-05T10:04:21;13.45;;;11.40;;
70199;SDS011;57587;55.688;37.600;2022-07-05T10:06:48;12.77;;;11.07;;
70199;SDS011;57587;55.688;37.600;2022-07-05T10:09:15;13.02;;;10.77;;
70199;SDS011;57587;55.688;37.600;2022-07-05T10:11:45;11.60;;;10.30;;
70199;SDS011;57587;55.688;37.600;2022-07-05T10:14:17;12.07;;;10.75;;
70199;SDS011;57587;55.688;37.600;2022-07-05T10:16:57;14.80;;;10.45;;
70199;SDS011;57587;55.688;37.600;2022-07-05T10:19:28;12.32;;;10.63;;
70199;SDS011;57587;55.688;37.600;2022-07-05T10:22:00;16.33;;;10.27;;
70199;SDS011;57587;55.688;37.600;2022-07-05T10:24:46;12.17;;;10.27;;
70199;SDS011;57587;55.688;37.600;2022-07-05T10:27:17;13.30;;;9.95;;
70199;SDS011;57587;55.688;37.600;2022-07-05T10:29:45;12.45;;;9.75;;
70199;SDS011;57587;55.688;37.600;2022-07-05T10:32:15;14.25;;;11.02;;
70199;SDS011;57587;55.688;37.600;2022-07-05T10:34:43;12.43;;;10.80;;
70199;SDS011;57587;55.688;37.600;2022-07-05T10:37:24;12.73;;;10.23;;
70199;SDS011;57587;55.688;37.600;2022-07-05T10:39:55;14.77;;;9.88;;
70199;SDS011;57587;55.688;37.600;2022-07-05T10:42:24;11.88;;;9.80;;
70199;SDS011;57587;55.688;37.600;2022-07-05T10:44:54;12.88;;;9.73;;
70199;SDS011;57587;55.688;37.600;2022-07-05T10:47:21;12.95;;;10.07;;
70199;SDS011;57587;55.688;37.600;2022-07-05T10:50:01;12.40;;;10.20;;
70199;SDS011;57587;55.688;37.600;2022-07-05T10:52:32;15.88;;;10.60;;
70199;SDS011;57587;55.688;37.600;2022-07-05T11:00:48;18.50;;;10.10;;
70199;SDS011;57587;55.688;37.600;2022-07-05T11:03:35;15.37;;;10.83;;
70199;SDS011;57587;55.688;37.600;2022-07-05T11:11:39;16.83;;;11.02;;
70199;SDS011;57587;55.688;37.600;2022-07-05T11:20:04;21.92;;;12.10;;
70199;SDS011;57587;55.688;37.600;2022-07-05T11:23:03;16.00;;;11.60;;
70199;SDS011;57587;55.688;37.600;2022-07-05T11:25:45;17.42;;;11.88;;
70199;SDS011;57587;55.688;37.600;2022-07-05T11:28:17;16.42;;;11.52;;
70199;SDS011;57587;55.688;37.600;2022-07-05T11:30:47;16.30;;;11.70;;
70199;SDS011;57587;55.688;37.600;2022-07-05T11:33:30;21.02;;;12.15;;
70199;SDS011;57587;55.688;37.600;2022-07-05T11:36:21;15.45;;;12.15;;
70199;SDS011;57587;55.688;37.600;2022-07-05T11:39:14;19.95;;;12.25;;
70199;SDS011;57587;55.688;37.600;2022-07-05T11:41:45;17.60;;;11.10;;
70199;SDS011;57587;55.688;37.600;2022-07-05T11:44:15;40.33;;;11.90;;
70199;SDS011;57587;55.688;37.600;2022-07-05T11:46:43;29.58;;;12.50;;
70199;SDS011;57587;55.688;37.600;2022-07-05T11:49:18;31.10;;;12.50;;
70199;SDS011;57587;55.688;37.600;2022-07-05T11:51:56;34.10;;;12.77;;
70199;SDS011;57587;55.688;37.600;2022-07-05T11:54:25;22.63;;;11.07;;
70199;SDS011;57587;55.688;37.600;2022-07-05T11:56:58;17.33;;;11.57;;
70199;SDS011;57587;55.688;37.600;2022-07-05T11:59:29;23.38;;;12.15;;
70199;SDS011;57587;55.688;37.600;2022-07-05T12:01:56;23.35;;;11.57;;
70199;SDS011;57587;55.688;37.600;2022-07-05T12:04:33;19.02;;;11.18;;
70199;SDS011;57587;55.688;37.600;2022-07-05T12:07:03;19.67;;;11.35;;
70199;SDS011;57587;55.688;37.600;2022-07-05T12:09:31;13.60;;;10.63;;
70199;SDS011;57587;55.688;37.600;2022-07-05T12:12:23;17.60;;;10.82;;
70199;SDS011;57587;55.688;37.600;2022-07-05T12:15:13;22.02;;;11.88;;
70199;SDS011;57587;55.688;37.600;2022-07-05T12:17:51;24.40;;;10.77;;
70199;SDS011;57587;55.688;37.600;2022-07-05T12:20:22;23.58;;;10.93;;
70199;SDS011;57587;55.688;37.600;2022-07-05T12:22:53;21.50;;;11.40;;
70199;SDS011;57587;55.688;37.600;2022-07-05T12:25:22;21.17;;;10.90;;
70199;SDS011;57587;55.688;37.600;2022-07-05T12:27:51;21.63;;;11.23;;
70199;SDS011;57587;55.688;37.600;2022-07-05T12:30:20;19.02;;;11.40;;
70199;SDS011;57587;55.688;37.600;2022-07-05T12:33:04;18.98;;;11.80;;
70199;SDS011;57587;55.688;37.600;2022-07-05T12:35:37;20.27;;;11.30;;
70199;SDS011;57587;55.688;37.600;2022-07-05T12:38:07;19.15;;;11.30;;
70199;SDS011;57587;55.688;37.600;2022-07-05T12:40:35;18.55;;;10.80;;
70199;SDS011;57587;55.688;37.600;2022-07-05T12:43:13;16.17;;;11.25;;
70199;SDS011;57587;55.688;37.600;2022-07-05T12:46:01;18.52;;;11.20;;
70199;SDS011;57587;55.688;37.600;2022-07-05T12:48:34;17.60;;;11.27;;
70199;SDS011;57587;55.688;37.600;2022-07-05T12:51:02;18.38;;;11.90;;
70199;SDS011;57587;55.688;37.600;2022-07-05T12:53:45;18.83;;;11.10;;
70199;SDS011;57587;55.688;37.600;2022-07-05T12:56:34;15.45;;;11.38;;
70199;SDS011;57587;55.688;37.600;2022-07-05T12:59:55;18.20;;;11.70;;
70199;SDS011;57587;55.688;37.600;2022-07-05T13:02:39;18.53;;;12.63;;
70199;SDS011;57587;55.688;37.600;2022-07-05T13:05:09;19.88;;;12.10;;
70199;SDS011;57587;55.688;37.600;2022-07-05T13:07:49;16.58;;;11.02;;
70199;SDS011;57587;55.688;37.600;2022-07-05T13:10:23;20.30;;;10.88;;
70199;SDS011;57587;55.688;37.600;2022-07-05T13:12:51;21.77;;;10.90;;
70199;SDS011;57587;55.688;37.600;2022-07-05T13:15:18;13.87;;;9.60;;
70199;SDS011;57587;55.688;37.600;2022-07-05T13:17:46;14.27;;;8.65;;
70199;SDS011;57587;55.688;37.600;2022-07-05T13:20:14;13.25;;;7.32;;
70199;SDS011;57587;55.688;37.600;2022-07-05T13:22:45;11.88;;;6.97;;
70199;SDS011;57587;55.688;37.600;2022-07-05T13:25:13;19.02;;;7.15;;
70199;SDS011;57587;55.688;37.600;2022-07-05T13:27:41;12.10;;;7.63;;
70199;SDS011;57587;55.688;37.600;2022-07-05T13:30:11;11.13;;;7.95;;
70199;SDS011;57587;55.688;37.600;2022-07-05T13:32:40;13.55;;;7.63;;
70199;SDS011;57587;55.688;37.600;2022-07-05T13:39:38;10.23;;;7.47;;
70199;SDS011;57587;55.688;37.600;2022-07-05T13:42:06;13.40;;;7.70;;
70199;SDS011;57587;55.688;37.600;2022-07-05T13:44:34;11.65;;;6.85;;
70199;SDS011;57587;55.688;37.600;2022-07-05T13:47:04;11.73;;;7.50;;
70199;SDS011;57587;55.688;37.600;2022-07-05T13:49:32;11.63;;;7.20;;
70199;SDS011;57587;55.688;37.600;2022-07-05T13:51:59;12.43;;;7.68;;
70199;SDS011;57587;55.688;37.600;2022-07-05T13:54:28;12.10;;;7.70;;
70199;SDS011;57587;55.688;37.600;2022-07-05T13:56:56;11.80;;;7.30;;
70199;SDS011;57587;55.688;37.600;2022-07-05T13:59:25;13.20;;;7.35;;
70199;SDS011;57587;55.688;37.600;2022-07-05T14:01:53;12.00;;;7.35;;
70199;SDS011;57587;55.688;37.600;2022-07-05T14:04:27;10.85;;;7.38;;
70199;SDS011;57587;55.688;37.600;2022-07-05T14:06:56;11.03;;;7.50;;
70199;SDS011;57587;55.688;37.600;2022-07-05T14:09:24;11.57;;;7.43;;
70199;SDS011;57587;55.688;37.600;2022-07-05T14:11:54;12.00;;;7.20;;
70199;SDS011;57587;55.688;37.600;2022-07-05T14:14:22;14.05;;;8.05;;
70199;SDS011;57587;55.688;37.600;2022-07-05T14:16:49;15.23;;;8.52;;
70199;SDS011;57587;55.688;37.600;2022-07-05T14:19:16;13.03;;;8.80;;
70199;SDS011;57587;55.688;37.600;2022-07-05T14:21:44;17.23;;;9.27;;
70199;SDS011;57587;55.688;37.600;2022-07-05T14:24:14;16.70;;;8.88;;
70199;SDS011;57587;55.688;37.600;2022-07-05T14:26:41;15.43;;;9.15;;
70199;SDS011;57587;55.688;37.600;2022-07-05T14:29:09;16.30;;;9.45;;
70199;SDS011;57587;55.688;37.600;2022-07-05T14:31:38;15.13;;;8.70;;
70199;SDS011;57587;55.688;37.600;2022-07-05T14:34:16;16.52;;;9.38;;
70199;SDS011;57587;55.688;37.600;2022-07-05T14:36:43;22.75;;;8.93;;
70199;SDS011;57587;55.688;37.600;2022-07-05T14:39:22;17.60;;;9.25;;
70199;SDS011;57587;55.688;37.600;2022-07-05T14:41:49;14.02;;;8.05;;
70199;SDS011;57587;55.688;37.600;2022-07-05T14:44:16;17.40;;;9.47;;
70199;SDS011;57587;55.688;37.600;2022-07-05T14:46:43;17.35;;;10.20;;
70199;SDS011;57587;55.688;37.600;2022-07-05T14:49:11;19.33;;;10.05;;
70199;SDS011;57587;55.688;37.600;2022-07-05T14:51:38;23.05;;;10.02;;
70199;SDS011;57587;55.688;37.600;2022-07-05T14:54:05;21.17;;;10.50;;
70199;SDS011;57587;55.688;37.600;2022-07-05T14:56:32;19.23;;;9.73;;
70199;SDS011;57587;55.688;37.600;2022-07-05T14:58:59;26.83;;;10.80;;
70199;SDS011;57587;55.688;37.600;2022-07-05T15:01:26;21.08;;;10.90;;
70199;SDS011;57587;55.688;37.600;2022-07-05T15:03:53;24.63;;;11.00;;
70199;SDS011;57587;55.688;37.600;2022-07-05T15:06:21;18.42;;;11.13;;
70199;SDS011;57587;55.688;37.600;2022-07-05T15:08:48;21.23;;;11.50;;
70199;SDS011;57587;55.688;37.600;2022-07-05T15:11:18;21.88;;;11.68;;
70199;SDS011;57587;55.688;37.600;2022-07-05T15:13:46;21.42;;;11.20;;
70199;SDS011;57587;55.688;37.600;2022-07-05T15:16:13;15.85;;;9.57;;
70199;SDS011;57587;55.688;37.600;2022-07-05T15:18:40;19.52;;;9.73;;
70199;SDS011;57587;55.688;37.600;2022-07-05T15:21:08;17.03;;;9.70;;
70199;SDS011;57587;55.688;37.600;2022-07-05T15:23:35;15.38;;;9.43;;
70199;SDS011;57587;55.688;37.600;2022-07-05T15:26:02;12.55;;;9.02;;
70199;SDS011;57587;55.688;37.600;2022-07-05T15:28:29;14.15;;;9.23;;
70199;SDS011;57587;55.688;37.600;2022-07-05T15:30:56;15.48;;;9.18;;
70199;SDS011;57587;55.688;37.600;2022-07-05T15:33:23;12.57;;;8.83;;
70199;SDS011;57587;55.688;37.600;2022-07-05T15:35:57;14.30;;;8.95;;
70199;SDS011;57587;55.688;37.600;2022-07-05T15:38:25;16.45;;;9.07;;